NCAR-RAP Real-Time Weather Data

Output produced by METARs form (06 May 2021  17:02 UTC)
found at http://weather.rap.ucar.edu/surface/
 
KRAP 061652Z 01009KT 10SM CLR 14/02 A3029 RMK AO2 SLP264 T01390022
KRAP 061552Z VRB06KT 10SM CLR 13/03 A3030 RMK AO2 SLP272 T01280033 $
KRAP 061452Z 33006KT 10SM CLR 11/03 A3032 RMK AO2 SLP280 T01110033 50003 $
KRAP 061352Z 29007KT 10SM CLR 09/02 A3032 RMK AO2 SLP278 T00890022
KRAP 061252Z 30006KT 10SM CLR 06/02 A3032 RMK AO2 SLP278 T00610017 $
KRAP 061152Z 30006KT 10SM FEW050 02/M01 A3031 RMK AO2 SLP279 70009 T00221006 10050 20011 53002 $
KRAP 061052Z AUTO 30005KT 10SM BKN036 BKN044 OVC055 04/01 A3030 RMK AO2 SLP279 T00390006 $
KRAP 060952Z AUTO 29004KT 10SM FEW045 BKN055 03/01 A3031 RMK AO2 SLP272 T00280006 $
KRAP 060852Z AUTO 29004KT 10SM BKN044 BKN060 03/01 A3030 RMK AO2 SLP272 T00280006 50004 $
KRAP 060752Z AUTO 24004KT 10SM OVC049 03/01 A3031 RMK AO2 SLP272 T00330011 $
KRAP 060652Z AUTO 00000KT 10SM FEW050 02/00 A3030 RMK AO2 SLP277 T00170000 401560011 $
KRAP 060552Z AUTO 10SM CLR 01/M01 A3029 RMK AO2 SLP270 T00111006 10100 20011 51012 $
KRAP 060452Z AUTO 30003KT 10SM CLR 03/01 A3029 RMK AO2 SLP267 T00330011 $
KRAP 060352Z 33003KT 10SM CLR 03/01 A3027 RMK AO2 SLP259 T00280006 $